createdAt,value
2022-11-16T00:01:01.803Z,5.63
2022-11-16T00:04:04.604Z,5.90
2022-11-16T00:07:07.411Z,5.38
2022-11-16T00:10:11.366Z,6.78
2022-11-16T00:13:15.321Z,6.00
2022-11-16T00:16:19.324Z,5.17
2022-11-16T00:19:22.025Z,4.70
2022-11-16T00:22:24.627Z,4.90
2022-11-16T00:25:27.193Z,5.37
2022-11-16T00:28:31.500Z,5.20
2022-11-16T00:31:34.381Z,4.93
2022-11-16T00:34:36.994Z,4.73
2022-11-16T00:37:39.554Z,2.97
2022-11-16T00:40:42.161Z,4.33
2022-11-16T00:43:46.193Z,3.27
2022-11-16T00:46:48.756Z,6.83
2022-11-16T00:49:51.336Z,3.17
2022-11-16T00:52:54.248Z,2.50
2022-11-16T00:55:56.913Z,3.28
2022-11-16T00:59:00.944Z,5.35
2022-11-16T01:02:03.597Z,5.50
2022-11-16T01:05:07.281Z,5.55
2022-11-16T01:11:31.937Z,4.10
2022-11-16T01:14:36.287Z,11.77
2022-11-16T01:17:39.810Z,9.63
2022-11-16T01:20:42.451Z,8.13
2022-11-16T01:23:45.008Z,7.20
2022-11-16T01:26:47.700Z,5.20
2022-11-16T01:29:51.704Z,2.88
2022-11-16T01:32:54.364Z,5.83
2022-11-16T01:35:57.104Z,6.68
2022-11-16T01:39:00.277Z,5.20
2022-11-16T01:42:02.929Z,6.35
2022-11-16T01:45:18.243Z,2.70
2022-11-16T01:48:23.797Z,4.57
2022-11-16T01:51:26.854Z,5.53
2022-11-16T01:54:30.561Z,4.43
2022-11-16T01:57:36.218Z,6.03
2022-11-16T02:00:40.153Z,3.97
2022-11-16T02:03:43.237Z,3.07
2022-11-16T02:06:58.595Z,3.95
2022-11-16T02:10:10.851Z,3.37
2022-11-16T02:13:26.967Z,3.33
2022-11-16T02:16:39.667Z,4.63
2022-11-16T02:20:02.479Z,3.67
2022-11-16T02:23:23.854Z,4.13
2022-11-16T02:26:38.658Z,5.27
2022-11-16T02:29:43.905Z,4.77
2022-11-16T02:32:49.445Z,5.67
2022-11-16T02:35:53.674Z,6.80
2022-11-16T02:38:59.285Z,8.57
2022-11-16T02:42:03.440Z,5.70
2022-11-16T02:45:11.004Z,10.93
2022-11-16T02:48:17.885Z,7.40
2022-11-16T02:51:20.865Z,8.93
2022-11-16T02:54:25.062Z,7.55
2022-11-16T02:57:38.955Z,6.27
2022-11-16T03:03:50.565Z,6.03
2022-11-16T03:06:55.044Z,5.27
2022-11-16T03:09:57.993Z,5.20
2022-11-16T03:13:01.555Z,5.43
2022-11-16T03:19:12.292Z,2.03
2022-11-16T03:22:17.395Z,3.47
2022-11-16T03:25:21.599Z,5.00
2022-11-16T03:28:27.426Z,5.10
2022-11-16T03:31:36.694Z,4.80
2022-11-16T03:34:40.213Z,5.63
2022-11-16T03:37:42.986Z,4.78
2022-11-16T03:40:46.673Z,6.72
2022-11-16T03:46:53.321Z,7.13
2022-11-16T03:49:55.892Z,5.50
2022-11-16T03:52:58.450Z,5.77
2022-11-16T03:56:01.143Z,7.10
2022-11-16T03:59:03.820Z,8.10
2022-11-16T04:02:07.740Z,8.23
2022-11-16T04:05:28.306Z,5.53
2022-11-16T04:08:48.713Z,5.50
2022-11-16T04:12:09.148Z,4.27
2022-11-16T04:15:29.574Z,3.63
2022-11-16T04:18:51.180Z,7.80
2022-11-16T04:22:13.017Z,3.97
2022-11-16T04:25:17.821Z,4.73
2022-11-16T04:28:22.038Z,6.80
2022-11-16T04:31:50.543Z,4.20
2022-11-16T04:35:12.196Z,4.80
2022-11-16T04:38:14.860Z,8.40
2022-11-16T04:41:31.388Z,6.73
2022-11-16T04:44:49.859Z,4.57
2022-11-16T04:47:53.048Z,4.30
2022-11-16T04:50:57.018Z,4.15
2022-11-16T04:53:59.713Z,5.70
2022-11-16T04:57:02.534Z,5.82
2022-11-16T05:00:06.204Z,3.42
2022-11-16T05:03:08.798Z,4.73
2022-11-16T05:06:12.837Z,6.27
2022-11-16T05:09:15.764Z,4.40
2022-11-16T05:12:22.299Z,5.85
2022-11-16T05:15:25.008Z,5.87
2022-11-16T05:18:27.621Z,5.38
2022-11-16T05:21:30.585Z,11.53
2022-11-16T05:24:36.092Z,9.25
2022-11-16T05:27:39.302Z,6.00
2022-11-16T05:30:41.865Z,8.13
2022-11-16T05:33:44.527Z,7.17
2022-11-16T05:36:48.512Z,7.05
2022-11-16T05:39:51.130Z,10.23
2022-11-16T05:42:53.700Z,9.73
2022-11-16T05:45:56.361Z,4.70
2022-11-16T05:48:58.920Z,4.50
2022-11-16T05:52:02.871Z,6.33
2022-11-16T05:55:06.550Z,5.10
2022-11-16T05:58:09.160Z,2.27
2022-11-16T06:01:11.727Z,2.33
2022-11-16T06:04:14.963Z,3.37
2022-11-16T06:07:19.103Z,5.22
2022-11-16T06:10:21.966Z,4.83
2022-11-16T06:13:24.489Z,2.50
2022-11-16T06:16:27.139Z,3.60
2022-11-16T06:19:32.456Z,8.97
2022-11-16T06:22:36.646Z,6.03
2022-11-16T06:25:40.287Z,10.77
2022-11-16T06:31:45.274Z,5.83
2022-11-16T06:34:47.839Z,4.77
2022-11-16T06:37:51.772Z,5.80
2022-11-16T06:40:55.990Z,2.50
2022-11-16T06:43:58.659Z,3.60
2022-11-16T06:47:02.591Z,4.55
2022-11-16T06:50:05.707Z,4.27
2022-11-16T06:53:09.730Z,3.38
2022-11-16T06:56:14.627Z,4.30
2022-11-16T06:59:18.614Z,3.93
2022-11-16T07:02:22.861Z,3.95
2022-11-16T07:05:25.454Z,3.07
2022-11-16T07:08:30.359Z,3.47
2022-11-16T07:11:33.150Z,3.03
2022-11-16T07:14:35.913Z,4.07
2022-11-16T07:17:38.787Z,3.63
2022-11-16T07:20:41.436Z,2.58
2022-11-16T07:23:45.560Z,4.85
2022-11-16T07:26:48.192Z,3.90
2022-11-16T07:29:50.809Z,2.50
2022-11-16T07:32:58.398Z,4.30
2022-11-16T07:36:04.411Z,4.03
2022-11-16T07:39:10.219Z,2.90
2022-11-16T07:42:12.907Z,2.83
2022-11-16T07:45:15.617Z,2.03
2022-11-16T07:48:18.220Z,2.67
2022-11-16T07:51:21.549Z,6.33
2022-11-16T07:54:25.592Z,2.10
2022-11-16T07:57:28.367Z,7.00
2022-11-16T08:00:30.929Z,2.97
2022-11-16T08:03:33.793Z,2.73
2022-11-16T08:06:36.312Z,4.20
2022-11-16T08:09:40.895Z,3.67
2022-11-16T08:12:43.586Z,3.80
2022-11-16T08:15:46.213Z,2.55
2022-11-16T08:18:49.197Z,1.60
2022-11-16T08:21:51.856Z,7.35
2022-11-16T08:24:55.885Z,2.95
2022-11-16T08:27:58.513Z,3.40
2022-11-16T08:31:01.167Z,3.13
2022-11-16T08:34:04.026Z,5.53
2022-11-16T08:37:06.668Z,3.17
2022-11-16T08:40:12.324Z,4.13
2022-11-16T08:43:14.966Z,2.07
2022-11-16T08:46:17.627Z,1.63
2022-11-16T08:49:20.299Z,3.72
2022-11-16T08:52:22.955Z,3.53
2022-11-16T08:55:27.277Z,4.75
2022-11-16T08:58:29.995Z,3.40
2022-11-16T09:01:33.404Z,3.70
2022-11-16T09:04:37.355Z,1.42
2022-11-16T09:07:40.667Z,2.97
2022-11-16T09:10:44.708Z,1.85
2022-11-16T09:13:48.946Z,0.87
2022-11-16T09:16:52.237Z,2.87
2022-11-16T09:19:54.862Z,1.63
2022-11-16T09:22:57.550Z,1.27
2022-11-16T09:26:03.808Z,2.35
2022-11-16T09:29:06.486Z,3.37
2022-11-16T09:32:09.278Z,1.38
2022-11-16T09:35:11.984Z,1.80
2022-11-16T09:38:21.981Z,2.63
2022-11-16T09:41:43.556Z,2.27
2022-11-16T09:44:59.010Z,3.33
2022-11-16T09:48:04.695Z,1.13
2022-11-16T09:51:08.993Z,2.70
2022-11-16T09:54:16.044Z,1.40
2022-11-16T09:57:23.536Z,2.73
2022-11-16T10:00:26.203Z,4.83
2022-11-16T10:03:30.341Z,3.55
2022-11-16T10:06:41.091Z,4.40
2022-11-16T10:09:44.325Z,3.47
2022-11-16T10:12:51.049Z,1.55
2022-11-16T10:16:01.011Z,2.33
2022-11-16T10:19:08.496Z,4.17
2022-11-16T10:22:22.664Z,1.87
2022-11-16T10:25:27.756Z,2.40
2022-11-16T10:28:47.843Z,1.20
2022-11-16T10:31:58.201Z,0.80
2022-11-16T10:35:03.348Z,1.43
2022-11-16T10:38:12.589Z,1.70
2022-11-16T10:41:20.096Z,2.07
2022-11-16T10:44:30.428Z,1.33
2022-11-16T10:47:38.517Z,1.80
2022-11-16T10:50:45.317Z,1.43
2022-11-16T10:53:48.192Z,2.17
2022-11-16T10:56:55.282Z,1.58
2022-11-16T10:59:59.574Z,0.87
2022-11-16T11:03:02.141Z,3.00
2022-11-16T11:06:05.010Z,2.63
2022-11-16T11:09:17.065Z,0.80
2022-11-16T11:12:39.138Z,1.40
2022-11-16T11:15:44.650Z,1.10
2022-11-16T11:18:47.310Z,0.63
2022-11-16T11:21:50.240Z,0.77
2022-11-16T11:24:53.170Z,0.45
2022-11-16T11:28:06.119Z,2.50
2022-11-16T11:31:13.679Z,2.90
2022-11-16T11:34:19.047Z,1.70
2022-11-16T11:37:23.476Z,6.23
2022-11-16T11:40:27.327Z,4.10
2022-11-16T11:43:30.263Z,3.13
2022-11-16T11:47:18.281Z,2.95
2022-11-16T11:50:05.397Z,3.87
2022-11-16T11:53:11.766Z,2.40
2022-11-16T11:56:15.305Z,2.57
2022-11-16T11:59:20.988Z,2.40
2022-11-16T12:02:39.771Z,2.20
2022-11-16T12:05:51.464Z,2.00
2022-11-16T12:09:03.267Z,2.27
2022-11-16T12:12:18.421Z,2.33
2022-11-16T12:15:44.487Z,2.33
2022-11-16T12:18:58.820Z,1.10
2022-11-16T12:22:09.839Z,2.97
2022-11-16T12:25:21.494Z,1.90
2022-11-16T12:28:41.420Z,1.43
2022-11-16T12:32:03.706Z,0.93
2022-11-16T12:35:22.642Z,1.00
2022-11-16T12:38:44.344Z,2.93
2022-11-16T12:42:02.192Z,2.87
2022-11-16T12:45:17.548Z,6.13
2022-11-16T12:48:30.882Z,5.10
2022-11-16T12:51:45.329Z,3.60
2022-11-16T12:55:27.153Z,1.20
2022-11-16T12:58:42.912Z,2.80
2022-11-16T13:01:55.033Z,1.63
2022-11-16T13:05:04.486Z,1.97
2022-11-16T13:08:13.225Z,1.77
2022-11-16T13:11:20.713Z,3.17
2022-11-16T13:14:27.266Z,4.07
2022-11-16T13:17:33.419Z,1.20
2022-11-16T13:20:41.119Z,0.33
2022-11-16T13:23:53.335Z,1.63
2022-11-16T13:26:59.855Z,2.67
2022-11-16T13:30:06.810Z,1.20
2022-11-16T13:33:21.730Z,1.50
2022-11-16T13:36:47.688Z,5.37
2022-11-16T13:40:11.563Z,2.37
2022-11-16T13:43:20.787Z,2.03
2022-11-16T13:46:54.111Z,0.80
2022-11-16T13:53:51.330Z,2.10
2022-11-16T13:56:24.167Z,2.00
2022-11-16T13:59:31.018Z,1.20
2022-11-16T14:02:35.143Z,3.50
2022-11-16T14:05:40.170Z,3.07
2022-11-16T14:08:51.019Z,1.73
2022-11-16T14:11:55.191Z,2.03
2022-11-16T14:15:12.528Z,2.80
2022-11-16T14:18:38.166Z,2.67
2022-11-16T14:21:48.973Z,2.53
2022-11-16T14:24:55.180Z,3.37
2022-11-16T14:28:07.985Z,3.30
2022-11-16T14:31:17.360Z,1.77
2022-11-16T14:34:22.229Z,2.03
2022-11-16T14:37:36.257Z,1.67
2022-11-16T14:40:44.732Z,1.90
2022-11-16T14:43:51.341Z,2.83
2022-11-16T14:46:54.237Z,2.87
2022-11-16T14:49:57.398Z,2.90
2022-11-16T14:53:03.985Z,5.70
2022-11-16T14:56:11.005Z,13.50
2022-11-16T14:59:18.626Z,11.53
2022-11-16T15:02:23.405Z,4.67
2022-11-16T15:05:29.590Z,6.67
2022-11-16T15:08:34.755Z,2.93
2022-11-16T15:11:57.350Z,8.33
2022-11-16T15:15:06.661Z,4.40
2022-11-16T15:18:14.894Z,3.60
2022-11-16T15:21:22.190Z,8.30
2022-11-16T15:24:32.899Z,6.20
2022-11-16T15:27:37.506Z,9.03
2022-11-16T15:30:41.846Z,4.37
2022-11-16T15:33:45.802Z,4.80
2022-11-16T15:36:49.104Z,5.20
2022-11-16T15:39:52.025Z,4.80
2022-11-16T15:42:54.908Z,7.57
2022-11-16T15:46:00.794Z,7.90
2022-11-16T15:49:03.558Z,8.83
2022-11-16T15:52:06.450Z,4.63
2022-11-16T15:55:21.993Z,7.45
2022-11-16T15:58:27.158Z,6.90
2022-11-16T16:01:31.429Z,6.83
2022-11-16T16:04:34.081Z,5.60
2022-11-16T16:07:37.614Z,3.90
2022-11-16T16:10:40.202Z,5.10
2022-11-16T16:13:44.629Z,4.00
2022-11-16T16:16:50.854Z,6.87
2022-11-16T16:19:57.534Z,9.07
2022-11-16T16:23:09.292Z,3.27
2022-11-16T16:26:11.925Z,6.53
2022-11-16T16:29:14.547Z,1.90
2022-11-16T16:32:24.831Z,3.83
2022-11-16T16:35:27.894Z,3.67
2022-11-16T16:38:30.550Z,4.13
2022-11-16T16:41:33.239Z,10.03
2022-11-16T16:44:35.835Z,4.57
2022-11-16T16:47:40.014Z,6.67
2022-11-16T16:50:42.655Z,4.60
2022-11-16T16:53:45.337Z,6.00
2022-11-16T16:56:48.233Z,7.43
2022-11-16T16:59:50.896Z,5.57
2022-11-16T17:02:55.208Z,13.93
2022-11-16T17:06:00.827Z,9.87
2022-11-16T17:09:03.567Z,13.60
2022-11-16T17:12:06.777Z,6.25
2022-11-16T17:15:13.847Z,6.85
2022-11-16T17:18:21.775Z,6.97
2022-11-16T17:21:24.476Z,5.57
2022-11-16T17:24:27.183Z,4.90
2022-11-16T17:27:29.807Z,6.93
2022-11-16T17:30:32.388Z,7.60
2022-11-16T17:33:37.451Z,4.77
2022-11-16T17:36:40.127Z,13.37
2022-11-16T17:39:42.723Z,3.40
2022-11-16T17:42:45.526Z,3.10
2022-11-16T17:45:48.124Z,5.03
2022-11-16T17:48:52.935Z,8.20
2022-11-16T17:51:55.605Z,5.73
2022-11-16T17:54:58.294Z,8.60
2022-11-16T17:58:00.939Z,11.93
2022-11-16T18:01:03.758Z,11.10
2022-11-16T18:04:07.941Z,13.88
2022-11-16T18:07:10.634Z,15.20
2022-11-16T18:10:18.903Z,12.73
2022-11-16T18:13:22.122Z,19.43
2022-11-16T18:16:26.839Z,13.38
2022-11-16T18:19:30.844Z,14.27
2022-11-16T18:22:33.527Z,14.17
2022-11-16T18:25:36.973Z,10.17
2022-11-16T18:28:39.929Z,10.60
2022-11-16T18:31:43.497Z,11.43
2022-11-16T18:34:47.563Z,8.47
2022-11-16T18:37:50.367Z,11.77
2022-11-16T18:41:04.176Z,11.05
2022-11-16T18:47:10.505Z,8.90
2022-11-16T18:50:21.265Z,12.67
2022-11-16T18:53:27.081Z,19.00
2022-11-16T18:56:30.068Z,13.00
2022-11-16T18:59:32.901Z,13.60
2022-11-16T19:02:35.636Z,14.30
2022-11-16T19:05:39.874Z,15.30
2022-11-16T19:08:46.878Z,13.87
2022-11-16T19:11:53.010Z,9.90
2022-11-16T19:14:55.682Z,13.23
2022-11-16T19:18:19.779Z,16.70
2022-11-16T19:21:23.285Z,12.43
2022-11-16T19:24:25.999Z,11.80
2022-11-16T19:27:28.939Z,11.18
2022-11-16T19:30:32.081Z,9.93
2022-11-16T19:33:38.155Z,17.35
2022-11-16T19:36:42.343Z,7.60
2022-11-16T19:39:45.145Z,11.50
2022-11-16T19:42:47.821Z,14.60
2022-11-16T19:45:50.583Z,9.90
2022-11-16T19:48:53.786Z,10.57
2022-11-16T19:51:59.385Z,9.35
2022-11-16T19:55:02.016Z,10.67
2022-11-16T19:58:05.761Z,14.27
2022-11-16T20:04:13.872Z,9.53
2022-11-16T20:07:18.211Z,11.93
2022-11-16T20:10:20.963Z,11.47
2022-11-16T20:13:23.747Z,20.53
2022-11-16T20:16:27.941Z,12.63
2022-11-16T20:19:30.550Z,9.73
2022-11-16T20:22:34.728Z,14.20
2022-11-16T20:25:41.602Z,7.43
2022-11-16T20:28:44.675Z,12.30
2022-11-16T20:31:47.645Z,11.02
2022-11-16T20:34:50.987Z,15.80
2022-11-16T20:37:54.946Z,7.72
2022-11-16T20:40:57.529Z,7.13
2022-11-16T20:44:01.309Z,12.23
2022-11-16T20:47:04.541Z,9.37
2022-11-16T20:50:07.517Z,15.82
2022-11-16T20:53:11.739Z,9.43
2022-11-16T20:56:15.678Z,5.23
2022-11-16T20:59:18.463Z,7.77
2022-11-16T21:02:21.115Z,5.28
2022-11-16T21:05:23.875Z,5.53
2022-11-16T21:08:29.591Z,11.30
2022-11-16T21:11:53.751Z,7.50
2022-11-16T21:17:57.945Z,9.77
2022-11-16T21:21:04.156Z,7.20
2022-11-16T21:24:08.972Z,9.70
2022-11-16T21:27:11.607Z,11.93
2022-11-16T21:30:15.219Z,20.07
2022-11-16T21:33:17.848Z,12.10
2022-11-16T21:36:21.980Z,10.03
2022-11-16T21:39:26.059Z,9.53
2022-11-16T21:42:28.941Z,8.63
2022-11-16T21:45:31.571Z,10.23
2022-11-16T21:48:34.792Z,12.47
2022-11-16T21:51:37.424Z,8.93
2022-11-16T21:54:55.967Z,12.47
2022-11-16T21:57:59.011Z,9.30
2022-11-16T22:01:04.562Z,8.98
2022-11-16T22:04:25.102Z,11.73
2022-11-16T22:07:33.858Z,12.27
2022-11-16T22:10:38.132Z,16.57
2022-11-16T22:13:41.016Z,13.90
2022-11-16T22:16:43.673Z,11.95
2022-11-16T22:19:46.263Z,15.90
2022-11-16T22:22:49.176Z,12.77
2022-11-16T22:25:53.439Z,10.43
2022-11-16T22:28:56.687Z,17.53
2022-11-16T22:31:59.314Z,10.10
2022-11-16T22:35:01.917Z,12.37
2022-11-16T22:38:04.858Z,11.53
2022-11-16T22:44:11.516Z,10.87
2022-11-16T22:47:14.169Z,11.90
2022-11-16T22:50:16.824Z,17.40
2022-11-16T22:53:19.454Z,13.67
2022-11-16T22:56:23.861Z,14.67
2022-11-16T22:59:26.463Z,11.20
2022-11-16T23:02:29.162Z,11.77
2022-11-16T23:05:31.826Z,10.70
2022-11-16T23:08:35.168Z,12.60
2022-11-16T23:11:56.668Z,12.35
2022-11-16T23:15:16.966Z,14.90
2022-11-16T23:18:20.591Z,13.37
2022-11-16T23:25:01.098Z,11.40
2022-11-16T23:28:07.204Z,10.50
2022-11-16T23:31:09.866Z,10.27
2022-11-16T23:34:12.611Z,14.37
2022-11-16T23:37:15.242Z,10.88
2022-11-16T23:40:18.303Z,12.93
2022-11-16T23:43:36.452Z,12.35
2022-11-16T23:46:39.202Z,10.97
2022-11-16T23:49:41.895Z,8.30
2022-11-16T23:52:44.498Z,11.23
2022-11-16T23:55:47.618Z,15.30
2022-11-16T23:58:51.666Z,9.38
